createdAt,value
2019-05-07T00:02:17.496Z,99816.45
2019-05-07T00:04:44.963Z,99823.77
2019-05-07T00:07:13.054Z,99823.02
2019-05-07T00:09:39.927Z,99817.86
2019-05-07T00:12:07.355Z,99816.48
2019-05-07T00:14:34.906Z,99818.87
2019-05-07T00:17:04.425Z,99814.34
2019-05-07T00:19:32.393Z,99810.95
2019-05-07T00:21:58.378Z,99809.22
2019-05-07T00:24:25.972Z,99815.04
2019-05-07T00:26:53.463Z,99810.58
2019-05-07T00:29:22.388Z,99806.06
2019-05-07T00:31:48.367Z,99803.66
2019-05-07T00:34:15.823Z,99804.86
2019-05-07T00:36:44.612Z,99798.55
2019-05-07T00:39:12.405Z,99797.40
2019-05-07T00:41:42.877Z,99799.50
2019-05-07T00:44:10.391Z,99802.58
2019-05-07T00:46:37.846Z,99799.38
2019-05-07T00:49:05.278Z,99797.16
2019-05-07T00:51:33.707Z,99800.98
2019-05-07T00:54:02.841Z,99796.20
2019-05-07T00:56:29.165Z,99801.23
2019-05-07T00:58:56.631Z,99792.33
2019-05-07T01:01:24.063Z,99792.05
2019-05-07T01:03:53.334Z,99795.52
2019-05-07T01:06:18.974Z,99802.53
2019-05-07T01:08:46.439Z,99796.89
2019-05-07T01:11:13.871Z,99798.61
2019-05-07T01:13:43.132Z,99802.61
2019-05-07T01:16:08.792Z,99794.75
2019-05-07T01:18:36.265Z,99800.91
2019-05-07T01:21:03.706Z,99794.81
2019-05-07T01:23:32.324Z,99795.98
2019-05-07T01:25:59.710Z,99798.00
2019-05-07T01:28:27.205Z,99795.27
2019-05-07T01:30:54.658Z,99793.48
2019-05-07T01:33:22.765Z,99790.02
2019-05-07T01:35:55.664Z,99795.50
2019-05-07T01:38:23.092Z,99793.06
2019-05-07T01:40:52.082Z,99792.24
2019-05-07T01:43:17.980Z,99795.82
2019-05-07T01:45:49.480Z,99793.91
2019-05-07T01:48:12.875Z,99793.10
2019-05-07T01:50:42.798Z,99795.75
2019-05-07T01:53:07.830Z,99803.83
2019-05-07T01:55:35.256Z,99791.91
2019-05-07T01:58:04.738Z,99792.34
2019-05-07T02:00:30.224Z,99793.55
2019-05-07T02:02:59.501Z,99803.28
2019-05-07T02:05:35.816Z,99794.05
2019-05-07T02:08:04.200Z,99796.02
2019-05-07T02:10:35.127Z,99801.64
2019-05-07T02:13:03.028Z,99796.78
2019-05-07T02:15:32.292Z,99795.55
2019-05-07T02:17:58.227Z,99794.81
2019-05-07T02:20:25.712Z,99795.27
2019-05-07T02:22:53.363Z,99795.92
2019-05-07T02:25:22.122Z,99794.64
2019-05-07T02:27:48.181Z,99788.92
2019-05-07T02:30:15.644Z,99790.02
2019-05-07T02:32:43.572Z,99790.96
2019-05-07T02:35:13.614Z,99791.73
2019-05-07T02:37:48.444Z,99793.14
2019-05-07T02:40:09.414Z,99789.23
2019-05-07T02:42:36.866Z,99783.25
2019-05-07T02:45:18.155Z,99785.95
2019-05-07T02:47:45.627Z,99781.41
2019-05-07T02:50:27.963Z,99785.29
2019-05-07T02:52:57.799Z,99787.39
2019-05-07T02:55:33.441Z,99783.97
2019-05-07T02:57:58.334Z,99783.31
2019-05-07T03:00:25.778Z,99782.17
2019-05-07T03:02:53.474Z,99789.09
2019-05-07T03:05:22.948Z,99784.81
2019-05-07T03:07:49.347Z,99787.17
2019-05-07T03:10:16.891Z,99789.88
2019-05-07T03:12:44.334Z,99788.75
2019-05-07T03:15:13.235Z,99782.41
2019-05-07T03:17:39.285Z,99793.33
2019-05-07T03:20:06.750Z,99786.66
2019-05-07T03:22:34.498Z,99788.59
2019-05-07T03:25:05.530Z,99785.77
2019-05-07T03:27:34.052Z,99789.90
2019-05-07T03:30:04.208Z,99790.29
2019-05-07T03:32:29.841Z,99785.74
2019-05-07T03:34:59.010Z,99784.73
2019-05-07T03:37:26.460Z,99786.91
2019-05-07T03:39:53.989Z,99784.58
2019-05-07T03:42:23.626Z,99790.25
2019-05-07T03:44:48.945Z,99785.78
2019-05-07T03:47:16.779Z,99782.86
2019-05-07T03:49:44.226Z,99782.28
2019-05-07T03:52:13.694Z,99779.61
2019-05-07T03:54:39.120Z,99779.57
2019-05-07T03:57:11.419Z,99781.16
2019-05-07T03:59:34.499Z,99782.81
2019-05-07T04:02:03.317Z,99779.66
2019-05-07T04:04:29.064Z,99777.03
2019-05-07T04:06:58.741Z,99778.06
2019-05-07T04:09:26.232Z,99779.45
2019-05-07T04:11:53.670Z,99780.89
2019-05-07T04:14:23.174Z,99782.89
2019-05-07T04:16:48.609Z,99782.41
2019-05-07T04:19:16.137Z,99776.44
2019-05-07T04:21:43.646Z,99775.09
2019-05-07T04:24:25.942Z,99776.67
2019-05-07T04:26:59.025Z,99778.72
2019-05-07T04:29:26.511Z,99776.83
2019-05-07T04:31:53.961Z,99777.31
2019-05-07T04:34:23.769Z,99772.69
2019-05-07T04:36:53.225Z,99775.89
2019-05-07T04:39:17.851Z,99774.02
2019-05-07T04:41:45.294Z,99781.21
2019-05-07T04:44:14.090Z,99779.16
2019-05-07T04:46:43.764Z,99779.67
2019-05-07T04:49:07.695Z,99775.95
2019-05-07T04:51:35.157Z,99780.44
2019-05-07T04:54:03.613Z,99781.04
2019-05-07T04:56:30.091Z,99772.13
2019-05-07T04:58:57.584Z,99773.82
2019-05-07T05:01:25.031Z,99773.06
2019-05-07T05:03:54.105Z,99776.82
2019-05-07T05:06:20.258Z,99771.20
2019-05-07T05:08:47.718Z,99781.84
2019-05-07T05:11:15.194Z,99782.13
2019-05-07T05:13:44.468Z,99774.62
2019-05-07T05:16:15.780Z,99772.13
2019-05-07T05:21:16.804Z,99767.20
2019-05-07T05:23:45.115Z,99769.73
2019-05-07T05:26:12.647Z,99772.35
2019-05-07T05:28:41.887Z,99764.27
2019-05-07T05:31:07.505Z,99773.36
2019-05-07T05:33:34.964Z,99776.87
2019-05-07T05:36:03.071Z,99772.13
2019-05-07T05:38:29.857Z,99774.52
2019-05-07T05:40:57.292Z,99773.51
2019-05-07T05:43:26.025Z,99776.26
2019-05-07T05:45:54.256Z,99780.27
2019-05-07T05:48:22.409Z,99776.19
2019-05-07T05:50:49.206Z,99771.63
2019-05-07T05:53:27.447Z,99774.19
2019-05-07T05:55:54.921Z,99771.94
2019-05-07T06:01:14.365Z,99771.81
2019-05-07T06:04:03.046Z,99773.22
2019-05-07T06:06:45.005Z,99772.41
2019-05-07T06:09:18.866Z,99773.48
2019-05-07T06:11:46.301Z,99773.11
2019-05-07T06:14:18.597Z,99772.02
2019-05-07T06:16:46.287Z,99768.45
2019-05-07T06:19:16.191Z,99768.23
2019-05-07T06:21:49.174Z,99768.08
2019-05-07T06:24:18.458Z,99772.52
2019-05-07T06:26:46.069Z,99771.41
2019-05-07T06:29:13.549Z,99769.78
2019-05-07T06:31:42.222Z,99770.83
2019-05-07T06:34:08.809Z,99768.61
2019-05-07T06:36:36.269Z,99770.52
2019-05-07T06:39:22.150Z,99769.66
2019-05-07T06:41:54.291Z,99776.45
2019-05-07T06:44:22.377Z,99772.36
2019-05-07T06:46:49.383Z,99773.26
2019-05-07T06:49:16.803Z,99772.94
2019-05-07T06:51:44.248Z,99773.27
2019-05-07T06:54:13.014Z,99772.67
2019-05-07T06:56:39.302Z,99772.43
2019-05-07T06:59:06.779Z,99771.23
2019-05-07T07:01:37.619Z,99778.95
2019-05-07T07:04:06.870Z,99775.72
2019-05-07T07:06:39.882Z,99777.00
2019-05-07T07:09:09.157Z,99781.36
2019-05-07T07:11:36.659Z,99776.06
2019-05-07T07:14:04.114Z,99777.59
2019-05-07T07:16:32.599Z,99773.80
2019-05-07T07:18:59.112Z,99775.96
2019-05-07T07:21:26.687Z,99769.65
2019-05-07T07:23:54.146Z,99769.19
2019-05-07T07:26:22.201Z,99768.25
2019-05-07T07:28:49.105Z,99766.11
2019-05-07T07:31:26.471Z,99763.68
2019-05-07T07:33:53.915Z,99758.11
2019-05-07T07:36:22.565Z,99755.97
2019-05-07T07:38:48.929Z,99749.94
2019-05-07T07:41:32.752Z,99749.47
2019-05-07T07:44:02.082Z,99753.22
2019-05-07T07:46:28.403Z,99743.88
2019-05-07T07:49:06.743Z,99738.00
2019-05-07T07:51:37.239Z,99747.98
2019-05-07T07:53:52.020Z,99741.52
2019-05-07T07:56:23.841Z,99738.89
2019-05-07T07:58:52.655Z,99741.92
2019-05-07T08:01:37.960Z,99733.69
2019-05-07T08:04:05.413Z,99739.45
2019-05-07T08:06:32.835Z,99736.74
2019-05-07T08:09:02.141Z,99735.32
2019-05-07T08:11:27.743Z,99726.91
2019-05-07T08:13:55.234Z,99728.88
2019-05-07T08:16:22.665Z,99735.30
2019-05-07T08:18:52.158Z,99737.95
2019-05-07T08:21:17.640Z,99734.00
2019-05-07T08:23:45.135Z,99729.97
2019-05-07T08:26:12.785Z,99733.19
2019-05-07T08:28:41.918Z,99727.95
2019-05-07T08:31:07.589Z,99722.56
2019-05-07T08:33:35.490Z,99721.61
2019-05-07T08:36:11.977Z,99713.56
2019-05-07T08:38:43.698Z,99715.11
2019-05-07T08:41:12.031Z,99718.73
2019-05-07T08:43:39.155Z,99710.24
2019-05-07T08:46:12.297Z,99718.82
2019-05-07T08:48:39.791Z,99720.45
2019-05-07T08:51:07.245Z,99718.47
2019-05-07T08:53:34.736Z,99710.47
2019-05-07T08:56:03.215Z,99711.67
2019-05-07T08:58:31.592Z,99710.78
2019-05-07T09:00:57.351Z,99711.55
2019-05-07T09:03:32.323Z,99709.39
2019-05-07T09:05:57.986Z,99715.75
2019-05-07T09:08:25.462Z,99716.05
2019-05-07T09:10:52.952Z,99705.44
2019-05-07T09:13:22.545Z,99712.98
2019-05-07T09:15:47.884Z,99712.56
2019-05-07T09:18:15.337Z,99707.40
2019-05-07T09:20:42.898Z,99707.27
2019-05-07T09:23:12.072Z,99700.48
2019-05-07T09:25:37.963Z,99698.20
2019-05-07T09:28:05.456Z,99695.66
2019-05-07T09:30:38.491Z,99696.00
2019-05-07T09:33:07.429Z,99698.78
2019-05-07T09:35:34.938Z,99695.23
2019-05-07T09:38:03.175Z,99689.72
2019-05-07T09:40:31.889Z,99693.86
2019-05-07T09:42:57.361Z,99690.63
2019-05-07T09:45:24.810Z,99687.33
2019-05-07T09:47:52.369Z,99690.44
2019-05-07T09:50:22.021Z,99689.30
2019-05-07T09:52:47.735Z,99689.77
2019-05-07T09:55:17.550Z,99685.27
2019-05-07T09:57:42.700Z,99681.76
2019-05-07T10:00:12.144Z,99682.84
2019-05-07T10:02:37.563Z,99682.17
2019-05-07T10:05:05.007Z,99677.70
2019-05-07T10:07:32.670Z,99677.20
2019-05-07T10:09:59.931Z,99670.76
2019-05-07T10:12:32.912Z,99676.93
2019-05-07T10:14:58.697Z,99668.58
2019-05-07T10:17:27.092Z,99669.69
2019-05-07T10:19:55.488Z,99669.97
2019-05-07T10:22:23.005Z,99669.55
2019-05-07T10:24:52.210Z,99663.03
2019-05-07T10:27:18.977Z,99672.77
2019-05-07T10:29:46.425Z,99669.47
2019-05-07T10:32:13.867Z,99667.98
2019-05-07T10:34:42.238Z,99662.49
2019-05-07T10:37:08.799Z,99664.66
2019-05-07T10:39:36.278Z,99667.33
2019-05-07T10:42:03.725Z,99662.06
2019-05-07T10:44:32.125Z,99662.47
2019-05-07T10:47:04.925Z,99659.20
2019-05-07T10:49:36.910Z,99657.67
2019-05-07T10:52:04.363Z,99649.16
2019-05-07T10:54:31.811Z,99654.12
2019-05-07T10:56:59.270Z,99649.13
2019-05-07T10:59:26.721Z,99649.02
2019-05-07T11:01:54.618Z,99642.51
2019-05-07T11:04:22.115Z,99640.17
2019-05-07T11:06:49.564Z,99639.89
2019-05-07T11:09:17.061Z,99639.82
2019-05-07T11:11:44.514Z,99635.79
2019-05-07T11:14:12.301Z,99635.00
2019-05-07T11:16:52.051Z,99635.08
2019-05-07T11:19:19.016Z,99633.71
2019-05-07T11:21:45.271Z,99632.52
2019-05-07T11:24:12.813Z,99640.44
2019-05-07T11:26:42.005Z,99638.31
2019-05-07T11:29:07.744Z,99639.47
2019-05-07T11:31:35.195Z,99639.65
2019-05-07T11:34:03.139Z,99635.66
2019-05-07T11:36:31.954Z,99635.81
2019-05-07T11:38:58.087Z,99634.63
2019-05-07T11:41:29.313Z,99636.84
2019-05-07T11:43:56.783Z,99624.50
2019-05-07T11:46:24.233Z,99627.08
2019-05-07T11:48:51.719Z,99625.69
2019-05-07T11:51:38.084Z,99618.21
2019-05-07T11:54:07.453Z,99616.97
2019-05-07T11:56:34.871Z,99611.63
2019-05-07T11:59:02.821Z,99612.06
2019-05-07T12:01:41.565Z,99614.58
2019-05-07T12:03:57.603Z,99604.27
2019-05-07T12:06:25.115Z,99601.48
2019-05-07T12:08:54.091Z,99604.34
2019-05-07T12:11:21.913Z,99606.40
2019-05-07T12:13:49.324Z,99610.95
2019-05-07T12:16:16.795Z,99598.20
2019-05-07T12:18:44.253Z,99599.84
2019-05-07T12:21:20.214Z,99599.59
2019-05-07T12:23:39.253Z,99588.57
2019-05-07T12:26:06.724Z,99583.45
2019-05-07T12:28:34.199Z,99589.69
2019-05-07T12:31:02.055Z,99577.75
2019-05-07T12:33:44.399Z,99585.92
2019-05-07T12:36:12.571Z,99575.27
2019-05-07T12:38:39.362Z,99566.89
2019-05-07T12:41:12.847Z,99568.89
2019-05-07T12:43:39.846Z,99557.34
2019-05-07T12:46:07.293Z,99558.05
2019-05-07T12:48:34.710Z,99553.27
2019-05-07T12:51:02.155Z,99541.86
2019-05-07T12:53:35.138Z,99546.45
2019-05-07T12:56:02.598Z,99549.53
2019-05-07T12:58:32.137Z,99538.34
2019-05-07T13:00:58.993Z,99540.47
2019-05-07T13:03:32.414Z,99535.62
2019-05-07T13:05:59.876Z,99533.20
2019-05-07T13:08:27.327Z,99533.51
2019-05-07T13:10:54.778Z,99537.70
2019-05-07T13:13:22.234Z,99531.00
2019-05-07T13:15:51.664Z,99529.35
2019-05-07T13:18:17.183Z,99526.52
2019-05-07T13:20:44.622Z,99522.59
2019-05-07T13:23:12.089Z,99522.98
2019-05-07T13:25:39.503Z,99519.38
2019-05-07T13:28:06.970Z,99527.62
2019-05-07T13:30:34.389Z,99520.06
2019-05-07T13:33:02.076Z,99512.92
2019-05-07T13:35:29.321Z,99514.94
2019-05-07T13:38:11.818Z,99510.02
2019-05-07T13:40:57.006Z,99510.86
2019-05-07T13:43:26.903Z,99502.86
2019-05-07T13:46:12.132Z,99499.13
2019-05-07T13:48:38.648Z,99491.13
2019-05-07T13:51:06.112Z,99488.30
2019-05-07T13:53:33.638Z,99492.39
2019-05-07T13:56:02.334Z,99492.71
2019-05-07T13:58:28.641Z,99483.59
2019-05-07T14:01:08.827Z,99483.42
2019-05-07T14:03:36.287Z,99487.70
2019-05-07T14:06:04.561Z,99480.27
2019-05-07T14:08:32.062Z,99475.27
2019-05-07T14:10:58.671Z,99471.84
2019-05-07T14:13:26.206Z,99472.34
2019-05-07T14:16:12.088Z,99465.08
2019-05-07T14:18:37.923Z,99475.22
2019-05-07T14:21:05.496Z,99466.77
2019-05-07T14:23:33.077Z,99467.04
2019-05-07T14:26:01.961Z,99455.33
2019-05-07T14:28:27.976Z,99458.31
2019-05-07T14:30:55.459Z,99460.68
2019-05-07T14:33:28.495Z,99459.58
2019-05-07T14:35:58.454Z,99444.08
2019-05-07T14:38:25.929Z,99446.36
2019-05-07T14:40:53.377Z,99448.96
2019-05-07T14:43:22.011Z,99453.19
2019-05-07T14:45:49.581Z,99450.91
2019-05-07T14:48:17.072Z,99448.68
2019-05-07T14:50:44.985Z,99435.88
2019-05-07T14:53:12.510Z,99448.67
2019-05-07T14:55:41.798Z,99426.98
2019-05-07T14:58:07.511Z,99424.17
2019-05-07T15:00:35.380Z,99425.47
2019-05-07T15:03:02.454Z,99426.65
2019-05-07T15:05:29.881Z,99420.38
2019-05-07T15:08:08.336Z,99419.16
2019-05-07T15:10:24.825Z,99418.41
2019-05-07T15:15:27.954Z,99417.05
2019-05-07T15:17:56.843Z,99417.05
2019-05-07T15:20:24.364Z,99406.34
2019-05-07T15:22:53.798Z,99406.37
2019-05-07T15:25:22.725Z,99407.72
2019-05-07T15:27:49.655Z,99401.43
2019-05-07T15:30:17.114Z,99413.58
2019-05-07T15:32:44.535Z,99408.59
2019-05-07T15:35:12.598Z,99403.34
2019-05-07T15:37:39.512Z,99394.88
2019-05-07T15:40:06.951Z,99391.03
2019-05-07T15:42:34.402Z,99398.69
2019-05-07T15:45:02.262Z,99386.31
2019-05-07T15:47:31.663Z,99389.44
2019-05-07T15:49:57.581Z,99381.61
2019-05-07T15:52:32.593Z,99386.47
2019-05-07T15:54:58.114Z,99388.74
2019-05-07T15:57:26.062Z,99387.14
2019-05-07T15:59:53.479Z,99378.27
2019-05-07T16:02:24.811Z,99374.24
2019-05-07T16:04:52.293Z,99374.41
2019-05-07T16:07:22.501Z,99373.66
2019-05-07T16:09:47.908Z,99370.23
2019-05-07T16:12:15.376Z,99362.52
2019-05-07T16:14:42.878Z,99359.45
2019-05-07T16:17:10.376Z,99366.34
2019-05-07T16:19:37.814Z,99365.02
2019-05-07T16:22:05.253Z,99360.33
2019-05-07T16:24:32.698Z,99351.98
2019-05-07T16:27:02.623Z,99356.69
2019-05-07T16:29:27.593Z,99352.52
2019-05-07T16:31:55.026Z,99352.67
2019-05-07T16:34:24.590Z,99339.91
2019-05-07T16:36:49.967Z,99345.71
2019-05-07T16:39:17.411Z,99340.31
2019-05-07T16:41:44.869Z,99330.72
2019-05-07T16:44:12.488Z,99331.61
2019-05-07T16:46:41.951Z,99331.55
2019-05-07T16:49:07.219Z,99328.45
2019-05-07T16:51:34.650Z,99327.20
2019-05-07T16:54:03.416Z,99325.10
2019-05-07T16:56:29.565Z,99322.86
2019-05-07T16:58:57.901Z,99322.81
2019-05-07T17:01:25.361Z,99325.09
2019-05-07T17:03:56.331Z,99326.56
2019-05-07T17:06:25.138Z,99330.45
2019-05-07T17:09:04.324Z,99317.64
2019-05-07T17:11:32.200Z,99321.23
2019-05-07T17:13:59.261Z,99315.41
2019-05-07T17:16:26.724Z,99316.70
2019-05-07T17:18:54.148Z,99313.82
2019-05-07T17:21:21.914Z,99305.67
2019-05-07T17:23:49.354Z,99306.11
2019-05-07T17:26:16.789Z,99305.84
2019-05-07T17:28:44.251Z,99308.30
2019-05-07T17:31:12.427Z,99308.05
2019-05-07T17:33:39.136Z,99314.80
2019-05-07T17:36:06.551Z,99308.31
2019-05-07T17:38:34.029Z,99310.55
2019-05-07T17:41:10.880Z,99306.67
2019-05-07T17:43:28.964Z,99307.53
2019-05-07T17:45:56.484Z,99302.27
2019-05-07T17:48:23.921Z,99307.48
2019-05-07T17:50:52.286Z,99299.59
2019-05-07T17:53:19.758Z,99307.36
2019-05-07T17:55:47.211Z,99302.58
2019-05-07T17:58:16.066Z,99300.05
2019-05-07T18:00:43.506Z,99296.13
2019-05-07T18:03:13.261Z,99298.60
2019-05-07T18:05:42.423Z,99301.45
2019-05-07T18:08:08.224Z,99300.53
2019-05-07T18:10:35.663Z,99300.05
2019-05-07T18:13:03.114Z,99299.14
2019-05-07T18:15:32.275Z,99293.73
2019-05-07T18:18:02.859Z,99293.43
2019-05-07T18:20:27.861Z,99289.41
2019-05-07T18:22:55.323Z,99290.28
2019-05-07T18:25:23.089Z,99285.50
2019-05-07T18:27:52.558Z,99287.19
2019-05-07T18:30:18.027Z,99291.64
2019-05-07T18:32:47.246Z,99286.82
2019-05-07T18:35:14.676Z,99286.28
2019-05-07T18:37:47.807Z,99287.00
2019-05-07T18:40:15.245Z,99282.00
2019-05-07T18:42:42.686Z,99281.65
2019-05-07T18:45:12.319Z,99280.79
2019-05-07T18:47:37.640Z,99285.09
2019-05-07T18:50:05.079Z,99279.95
2019-05-07T18:52:32.538Z,99280.41
2019-05-07T18:54:59.989Z,99285.77
2019-05-07T18:57:27.543Z,99281.31
2019-05-07T18:59:55.004Z,99276.60
2019-05-07T19:02:22.648Z,99274.37
2019-05-07T19:04:51.951Z,99282.48
2019-05-07T19:07:17.325Z,99275.28
2019-05-07T19:09:47.649Z,99275.34
2019-05-07T19:12:13.049Z,99279.75
2019-05-07T19:14:39.704Z,99269.53
2019-05-07T19:17:07.167Z,99273.88
2019-05-07T19:19:34.604Z,99283.01
2019-05-07T19:22:02.231Z,99281.12
2019-05-07T19:24:42.296Z,99281.48
2019-05-07T19:26:57.007Z,99282.58
2019-05-07T19:29:24.549Z,99285.80
2019-05-07T19:31:52.611Z,99286.70
2019-05-07T19:34:21.818Z,99282.00
2019-05-07T19:36:47.864Z,99280.85
2019-05-07T19:39:15.309Z,99282.03
2019-05-07T19:41:43.087Z,99287.72
2019-05-07T19:44:12.546Z,99295.84
2019-05-07T19:46:37.734Z,99294.14
2019-05-07T19:49:07.142Z,99286.30
2019-05-07T19:51:32.615Z,99287.60
2019-05-07T19:54:02.026Z,99280.63
2019-05-07T19:56:28.277Z,99276.72
2019-05-07T19:58:55.756Z,99275.23
2019-05-07T20:01:23.970Z,99275.05
2019-05-07T20:03:52.884Z,99268.89
2019-05-07T20:06:18.908Z,99275.03
2019-05-07T20:08:46.341Z,99271.18
2019-05-07T20:11:14.395Z,99265.22
2019-05-07T20:13:43.755Z,99268.93
2019-05-07T20:16:24.124Z,99269.59
2019-05-07T20:18:52.538Z,99272.41
2019-05-07T20:21:19.811Z,99265.19
2019-05-07T20:23:47.540Z,99268.30
2019-05-07T20:26:14.979Z,99260.45
2019-05-07T20:28:42.495Z,99257.08
2019-05-07T20:33:43.736Z,99255.59
2019-05-07T20:36:11.198Z,99256.33
2019-05-07T20:38:38.631Z,99250.43
2019-05-07T20:41:06.118Z,99246.36
2019-05-07T20:43:33.585Z,99235.69
2019-05-07T20:46:02.627Z,99222.88
2019-05-07T20:48:28.511Z,99220.73
2019-05-07T20:50:56.658Z,99217.91
2019-05-07T20:53:29.915Z,99215.41
2019-05-07T20:55:58.678Z,99210.31
2019-05-07T20:58:27.086Z,99210.80
2019-05-07T21:00:54.617Z,99201.58
2019-05-07T21:03:23.808Z,99194.48
2019-05-07T21:05:52.898Z,99186.66
2019-05-07T21:08:19.835Z,99188.91
2019-05-07T21:10:47.553Z,99193.09
2019-05-07T21:13:27.443Z,99189.19
2019-05-07T21:15:42.847Z,99191.64
2019-05-07T21:18:12.161Z,99186.52
2019-05-07T21:20:37.805Z,99187.77
2019-05-07T21:23:05.275Z,99178.08
2019-05-07T21:25:42.672Z,99175.27
2019-05-07T21:28:02.101Z,99175.03
2019-05-07T21:30:27.861Z,99176.16
2019-05-07T21:32:55.569Z,99170.73
2019-05-07T21:35:23.040Z,99175.66
2019-05-07T21:37:52.413Z,99171.34
2019-05-07T21:40:18.537Z,99182.28
2019-05-07T21:42:45.973Z,99171.94
2019-05-07T21:45:13.826Z,99172.13
2019-05-07T21:47:41.364Z,99161.23
2019-05-07T21:50:08.787Z,99163.61
2019-05-07T21:52:39.360Z,99157.83
2019-05-07T21:55:07.619Z,99155.20
2019-05-07T21:57:40.572Z,99146.28
2019-05-07T22:00:23.692Z,99143.73
2019-05-07T22:02:52.566Z,99140.47
2019-05-07T22:05:18.615Z,99135.66
2019-05-07T22:07:46.069Z,99129.91
2019-05-07T22:10:13.507Z,99126.50
2019-05-07T22:12:40.958Z,99129.72
2019-05-07T22:15:08.393Z,99130.58
2019-05-07T22:17:35.830Z,99135.97
2019-05-07T22:20:03.280Z,99133.31
2019-05-07T22:22:32.056Z,99133.59
2019-05-07T22:24:58.630Z,99126.67
2019-05-07T22:27:26.069Z,99127.52
2019-05-07T22:29:53.532Z,99133.89
2019-05-07T22:32:37.046Z,99121.03
2019-05-07T22:35:14.478Z,99118.57
2019-05-07T22:37:41.899Z,99102.78
2019-05-07T22:40:09.374Z,99102.14
2019-05-07T22:42:36.815Z,99089.98
2019-05-07T22:45:04.274Z,99083.11
2019-05-07T22:47:32.600Z,99084.33
2019-05-07T22:49:59.198Z,99079.17
2019-05-07T22:52:26.649Z,99083.70
2019-05-07T22:54:54.118Z,99083.70
2019-05-07T22:57:24.969Z,99074.14
2019-05-07T22:59:52.412Z,99070.85
2019-05-07T23:02:22.641Z,99064.47
2019-05-07T23:04:47.859Z,99059.20
2019-05-07T23:07:15.327Z,99067.55
2019-05-07T23:09:44.928Z,99054.67
2019-05-07T23:12:12.326Z,99048.11
2019-05-07T23:14:37.716Z,99052.06
2019-05-07T23:17:05.170Z,99051.07
2019-05-07T23:19:32.822Z,99036.62
2019-05-07T23:22:00.131Z,99034.09
2019-05-07T23:24:27.599Z,99027.37
2019-05-07T23:26:55.034Z,99025.19
2019-05-07T23:29:22.824Z,99017.48
2019-05-07T23:31:49.990Z,99022.91
2019-05-07T23:34:17.465Z,99008.72
2019-05-07T23:36:44.889Z,99011.00
2019-05-07T23:39:12.350Z,99003.91
2019-05-07T23:41:42.625Z,99004.05
2019-05-07T23:44:12.210Z,99001.67
2019-05-07T23:46:37.508Z,98997.30
2019-05-07T23:49:04.975Z,98995.70
2019-05-07T23:51:32.392Z,98991.28
2019-05-07T23:54:02.705Z,98985.43
2019-05-07T23:56:27.844Z,98986.00
2019-05-07T23:58:55.305Z,98979.69
